»·PEaware :: N172TT KSNA-KCRQ

N172TT :: KSNA-KCRQ

FLIGHT INFORMATION

Flight Status: Arrived
Operator: Privately registered:
United States
More flights under this callsign
Pilot: Thomas T. (19955)
Aircraft: CESSNA 172 SKYHAWK
(C172)
More flights by this aircraft type
Origin: KSNA John Wayne-Orange Co
United States
Destination: KCRQ McClellan-Palomar
United States
More flights between these airports :: More routes between these airports
Route: +KSNA V23 OCN KCRQ
File this flight plan on PilotEdge
Remarks: TRAING FLIGHT I2 RATING
Altitude:
(Current/Filed)
5,000ft
Speed:
(Current/Filed)
118kts
Departed: 26-Sep-18 11:45 AM
Arrived: 26-Sep-18 12:29 PM
Distance/Time
Traveled:
44nm/0:44
Distance/Time
To Go:
Arrived

Flight Plot

Page will automatically refresh every two minutes.


Map Options




Map Legend


Flown Route
Filed Route
Departure Airport
Arrival Airport
Navaid (VOR, NDB)
Fix

Horizontal Profiles

Position Reports

Time Latitude Longitude Heading Altitude Ground
Speed
26-Sep-18 11:30 33.676080 -117.870909 219 60ft 0kts
26-Sep-18 11:31 33.676080 -117.870909 219 60ft 0kts
26-Sep-18 11:32 33.676080 -117.870909 219 60ft 0kts
26-Sep-18 11:33 33.676080 -117.870909 219 60ft 0kts
26-Sep-18 11:34 33.676080 -117.870909 219 60ft 0kts
26-Sep-18 11:35 33.676080 -117.870909 219 60ft 0kts
26-Sep-18 11:36 33.676080 -117.870909 219 60ft 0kts
26-Sep-18 11:37 33.676080 -117.870909 219 60ft 0kts
26-Sep-18 11:38 33.676080 -117.870909 219 60ft 0kts
26-Sep-18 11:39 33.676080 -117.870909 219 60ft 0kts
26-Sep-18 11:40 33.676080 -117.870909 219 60ft 0kts
26-Sep-18 11:41 33.676141 -117.870156 56 60ft 9kts
26-Sep-18 11:42 33.679880 -117.867845 25 60ft 15kts
26-Sep-18 11:43 33.681238 -117.866712 89 60ft 0kts
26-Sep-18 11:44 33.681238 -117.866712 89 60ft 0kts
26-Sep-18 11:45 33.681238 -117.866712 89 60ft 0kts
26-Sep-18 11:46 33.680506 -117.865783 207 60ft 0kts
26-Sep-18 11:47 33.665495 -117.875672 200 540ft 83kts
26-Sep-18 11:48 33.641886 -117.879506 186 1245ft 87kts
26-Sep-18 11:49 33.618100 -117.883389 186 1941ft 86kts
26-Sep-18 11:50 33.594756 -117.887212 186 2637ft 84kts
26-Sep-18 11:51 33.577439 -117.875048 116 3341ft 80kts
26-Sep-18 11:52 33.568186 -117.851361 108 4035ft 77kts
26-Sep-18 11:53 33.560420 -117.827988 107 4729ft 73kts
26-Sep-18 11:54 33.552113 -117.801980 108 5040ft 108kts
26-Sep-18 11:55 33.540477 -117.765809 113 5042ft 120kts
26-Sep-18 11:56 33.520356 -117.733640 135 5039ft 123kts
26-Sep-18 11:57 33.496029 -117.704915 132 5038ft 123kts
26-Sep-18 11:58 33.472437 -117.676698 131 5036ft 120kts
26-Sep-18 11:59 33.449200 -117.648015 131 5037ft 121kts
26-Sep-18 12:00 33.425099 -117.619667 135 5038ft 122kts
26-Sep-18 12:01 33.400318 -117.591672 136 5043ft 120kts
26-Sep-18 12:02 33.378059 -117.563279 137 5043ft 115kts
26-Sep-18 12:03 33.355118 -117.537349 140 5043ft 113kts
26-Sep-18 12:04 33.332060 -117.511891 139 5043ft 112kts
26-Sep-18 12:05 33.311299 -117.484717 107 5041ft 115kts
26-Sep-18 12:06 33.304758 -117.447381 104 5039ft 114kts
26-Sep-18 12:07 33.298289 -117.410521 104 5035ft 113kts
26-Sep-18 12:08 33.291654 -117.374041 104 5030ft 112kts
26-Sep-18 12:09 33.284894 -117.338523 104 5026ft 111kts
26-Sep-18 12:10 33.278062 -117.302759 104 5027ft 110kts
26-Sep-18 12:11 33.270667 -117.267451 104 5028ft 110kts
26-Sep-18 12:12 33.265051 -117.233198 99 5025ft 98kts
26-Sep-18 12:13 33.260126 -117.202125 99 5024ft 93kts
26-Sep-18 12:14 33.255061 -117.171750 99 5025ft 94kts
26-Sep-18 12:15 33.249476 -117.138619 99 5033ft 107kts
26-Sep-18 12:16 33.243524 -117.103544 99 5035ft 110kts
26-Sep-18 12:17 33.237203 -117.067546 99 5037ft 110kts
26-Sep-18 12:18 33.230722 -117.032305 99 5036ft 103kts
26-Sep-18 12:19 33.222231 -117.001183 140 4992ft 108kts
26-Sep-18 12:20 33.190918 -116.990456 193 4118ft 118kts
26-Sep-18 12:21 33.171915 -117.008307 225 3577ft 94kts
26-Sep-18 12:22 33.165565 -117.034398 268 3581ft 102kts
26-Sep-18 12:23 33.162462 -117.066944 260 3583ft 101kts
26-Sep-18 12:24 33.158431 -117.093841 261 3481ft 106kts
26-Sep-18 12:25 33.153778 -117.119647 258 3072ft 116kts
26-Sep-18 12:26 33.150057 -117.151158 258 2500ft 106kts
26-Sep-18 12:27 33.143504 -117.181155 262 1977ft 86kts
26-Sep-18 12:28 33.140292 -117.209441 258 1477ft 87kts
26-Sep-18 12:29 33.134696 -117.236901 263 981ft 77kts
26-Sep-18 12:30 33.131619 -117.259919 257 593ft 71kts
26-Sep-18 12:31 33.128321 -117.278940 233 309ft 23kts
26-Sep-18 12:32 33.127556 -117.279858 213 309ft 13kts
26-Sep-18 12:33 33.126712 -117.280579 333 310ft 0kts
26-Sep-18 12:34 33.126712 -117.280579 333 310ft 0kts
26-Sep-18 12:35 33.126712 -117.280579 333 310ft 0kts
26-Sep-18 12:36 33.126712 -117.280579 333 310ft 0kts

Navigation Log

Ident Type
Flight plan parsing failed, navigation log unavailable